createdAt,value
2017-12-26T00:00:57.714Z,4.54
2017-12-26T00:01:58.537Z,4.53
2017-12-26T00:02:59.466Z,4.52
2017-12-26T00:03:57.659Z,4.51
2017-12-26T00:04:57.716Z,4.5
2017-12-26T00:05:57.811Z,4.51
2017-12-26T00:06:57.840Z,4.51
2017-12-26T00:07:57.883Z,4.52
2017-12-26T00:08:57.579Z,4.51
2017-12-26T00:09:57.649Z,4.48
2017-12-26T00:10:57.769Z,4.48
2017-12-26T00:11:57.702Z,4.48
2017-12-26T00:12:57.743Z,4.49
2017-12-26T00:13:58.026Z,4.49
2017-12-26T00:14:57.967Z,4.5
2017-12-26T00:15:57.710Z,4.5
2017-12-26T00:16:57.739Z,4.5
2017-12-26T00:17:58.420Z,4.51
2017-12-26T00:18:57.822Z,4.51
2017-12-26T00:19:57.751Z,4.5
2017-12-26T00:20:57.719Z,4.51
2017-12-26T00:21:57.843Z,4.52
2017-12-26T00:22:57.776Z,4.5
2017-12-26T00:23:57.623Z,4.5
2017-12-26T00:24:57.630Z,4.51
2017-12-26T00:25:57.973Z,4.51
2017-12-26T00:26:57.771Z,4.5
2017-12-26T00:27:57.779Z,4.49
2017-12-26T00:28:57.744Z,4.48
2017-12-26T00:29:57.708Z,4.46
2017-12-26T00:30:57.733Z,4.46
2017-12-26T00:31:57.793Z,4.45
2017-12-26T00:32:57.695Z,4.42
2017-12-26T00:33:57.744Z,4.43
2017-12-26T00:34:57.548Z,4.43
2017-12-26T00:35:57.605Z,4.43
2017-12-26T00:36:57.841Z,4.39
2017-12-26T00:37:57.627Z,4.42
2017-12-26T00:38:57.805Z,4.43
2017-12-26T00:39:57.767Z,4.45
2017-12-26T00:40:57.664Z,4.46
2017-12-26T00:41:57.884Z,4.44
2017-12-26T00:42:57.786Z,4.45
2017-12-26T00:43:57.629Z,4.46
2017-12-26T00:44:57.644Z,4.45
2017-12-26T00:45:57.787Z,4.45
2017-12-26T00:46:57.740Z,4.46
2017-12-26T00:47:57.725Z,4.48
2017-12-26T00:48:57.729Z,4.5
2017-12-26T00:49:57.799Z,4.52
2017-12-26T00:50:57.750Z,4.5
2017-12-26T00:51:57.741Z,4.53
2017-12-26T00:52:57.717Z,4.52
2017-12-26T00:53:57.807Z,4.5
2017-12-26T00:54:57.716Z,4.51
2017-12-26T00:55:57.739Z,4.52
2017-12-26T00:56:57.817Z,4.51
2017-12-26T00:57:57.605Z,4.52
2017-12-26T00:58:57.989Z,4.52
2017-12-26T00:59:57.578Z,4.49
2017-12-26T01:00:57.672Z,4.51
2017-12-26T01:01:57.834Z,4.5
2017-12-26T01:02:57.724Z,4.5
2017-12-26T01:03:57.759Z,4.5
2017-12-26T01:04:57.643Z,4.51
2017-12-26T01:05:57.630Z,4.53
2017-12-26T01:06:57.619Z,4.52
2017-12-26T01:07:57.663Z,4.52
2017-12-26T01:08:57.667Z,4.52
2017-12-26T01:09:57.982Z,4.53
2017-12-26T01:10:57.880Z,4.52
2017-12-26T01:11:57.732Z,4.54
2017-12-26T01:12:57.758Z,4.56
2017-12-26T01:13:57.639Z,4.57
2017-12-26T01:14:57.893Z,4.54
2017-12-26T01:15:58.028Z,4.55
2017-12-26T01:16:57.828Z,4.55
2017-12-26T01:17:57.617Z,4.55
2017-12-26T01:18:57.724Z,4.57
2017-12-26T01:19:57.722Z,4.56
2017-12-26T01:20:57.675Z,4.55
2017-12-26T01:21:57.665Z,4.56
2017-12-26T01:22:57.784Z,4.55
2017-12-26T01:23:57.867Z,4.55
2017-12-26T01:24:57.688Z,4.56
2017-12-26T01:25:57.713Z,4.57
2017-12-26T01:26:57.708Z,4.55
2017-12-26T01:27:57.804Z,4.54
2017-12-26T01:28:57.731Z,4.55
2017-12-26T01:29:57.787Z,4.55
2017-12-26T01:30:57.740Z,4.57
2017-12-26T01:31:57.779Z,4.55
2017-12-26T01:32:57.659Z,4.55
2017-12-26T01:33:57.730Z,4.55
2017-12-26T01:34:57.963Z,4.56
2017-12-26T01:35:57.779Z,4.52
2017-12-26T01:36:57.705Z,4.55
2017-12-26T01:37:57.606Z,4.53
2017-12-26T01:38:57.802Z,4.55
2017-12-26T01:39:57.757Z,4.52
2017-12-26T01:40:57.840Z,4.52
2017-12-26T01:41:57.715Z,4.5
2017-12-26T01:42:57.698Z,4.47
2017-12-26T01:43:57.866Z,4.51
2017-12-26T01:44:57.813Z,4.52
2017-12-26T01:45:57.732Z,4.53
2017-12-26T01:46:57.689Z,4.54
2017-12-26T01:47:57.888Z,4.51
2017-12-26T01:48:57.655Z,4.52
2017-12-26T01:49:57.878Z,4.53
2017-12-26T01:50:57.733Z,4.51
2017-12-26T01:51:57.785Z,4.52
2017-12-26T01:52:58.109Z,4.49
2017-12-26T01:53:57.829Z,4.52
2017-12-26T01:54:57.761Z,4.49
2017-12-26T01:55:57.661Z,4.5
2017-12-26T01:56:57.706Z,4.49
2017-12-26T01:57:57.756Z,4.53
2017-12-26T01:58:57.694Z,4.53
2017-12-26T01:59:57.794Z,4.54
2017-12-26T02:00:57.813Z,4.54
2017-12-26T02:01:57.663Z,4.52
2017-12-26T02:02:57.722Z,4.54
2017-12-26T02:03:57.769Z,4.52
2017-12-26T02:04:58.110Z,4.51
2017-12-26T02:05:57.733Z,4.52
2017-12-26T02:06:57.664Z,4.49
2017-12-26T02:07:57.655Z,4.48
2017-12-26T02:08:57.701Z,4.49
2017-12-26T02:09:57.745Z,4.48
2017-12-26T02:10:57.982Z,4.47
2017-12-26T02:11:57.810Z,4.47
2017-12-26T02:12:57.759Z,4.48
2017-12-26T02:13:57.687Z,4.47
2017-12-26T02:14:57.780Z,4.48
2017-12-26T02:15:57.787Z,4.48
2017-12-26T02:16:57.852Z,4.5
2017-12-26T02:17:57.665Z,4.49
2017-12-26T02:18:57.583Z,4.47
2017-12-26T02:19:57.822Z,4.5
2017-12-26T02:20:57.865Z,4.5
2017-12-26T02:21:57.856Z,4.5
2017-12-26T02:22:57.987Z,4.5
2017-12-26T02:23:57.869Z,4.5
2017-12-26T02:24:57.733Z,4.51
2017-12-26T02:25:57.690Z,4.51
2017-12-26T02:26:57.767Z,4.52
2017-12-26T02:27:57.843Z,4.51
2017-12-26T02:28:58.038Z,4.51
2017-12-26T02:29:57.826Z,4.52
2017-12-26T02:30:58.004Z,4.52
2017-12-26T02:31:57.782Z,4.5
2017-12-26T02:32:57.661Z,4.5
2017-12-26T02:33:57.912Z,4.53
2017-12-26T02:34:57.903Z,4.52
2017-12-26T02:35:57.819Z,4.51
2017-12-26T02:36:57.748Z,4.51
2017-12-26T02:37:57.703Z,4.51
2017-12-26T02:38:57.696Z,4.51
2017-12-26T02:39:57.717Z,4.52
2017-12-26T02:40:57.930Z,4.5
2017-12-26T02:41:57.823Z,4.52
2017-12-26T02:42:57.780Z,4.5
2017-12-26T02:43:57.864Z,4.52
2017-12-26T02:44:57.793Z,4.5
2017-12-26T02:45:57.950Z,4.53
2017-12-26T02:46:58.037Z,4.51
2017-12-26T02:47:57.838Z,4.55
2017-12-26T02:48:57.823Z,4.53
2017-12-26T02:49:57.779Z,4.54
2017-12-26T02:50:57.949Z,4.55
2017-12-26T02:51:57.801Z,4.56
2017-12-26T02:52:57.828Z,4.56
2017-12-26T02:53:57.830Z,4.57
2017-12-26T02:54:57.777Z,4.57
2017-12-26T02:55:57.946Z,4.58
2017-12-26T02:56:57.801Z,4.56
2017-12-26T02:57:57.807Z,4.55
2017-12-26T02:58:57.763Z,4.55
2017-12-26T02:59:57.784Z,4.55
2017-12-26T03:00:57.802Z,4.55
2017-12-26T03:01:57.784Z,4.55
2017-12-26T03:02:58.149Z,4.54
2017-12-26T03:03:57.732Z,4.5
2017-12-26T03:04:57.816Z,4.5
2017-12-26T03:05:57.908Z,4.52
2017-12-26T03:06:57.764Z,4.48
2017-12-26T03:07:57.786Z,4.48
2017-12-26T03:08:57.724Z,4.49
2017-12-26T03:09:57.786Z,4.47
2017-12-26T03:10:57.999Z,4.51
2017-12-26T03:11:57.812Z,4.46
2017-12-26T03:12:57.807Z,4.49
2017-12-26T03:13:57.843Z,4.45
2017-12-26T03:14:57.784Z,4.43
2017-12-26T03:15:57.918Z,4.4
2017-12-26T03:16:57.807Z,4.45
2017-12-26T03:17:57.910Z,4.44
2017-12-26T03:18:57.765Z,4.41
2017-12-26T03:19:57.844Z,4.43
2017-12-26T03:20:57.969Z,4.44
2017-12-26T03:21:57.868Z,4.43
2017-12-26T03:22:57.747Z,4.45
2017-12-26T03:23:57.749Z,4.43
2017-12-26T03:24:57.886Z,4.45
2017-12-26T03:25:57.867Z,4.44
2017-12-26T03:28:58.049Z,4.45
2017-12-26T03:29:57.733Z,4.44
2017-12-26T03:30:57.808Z,4.43
2017-12-26T03:31:58.290Z,4.44
2017-12-26T03:32:58.036Z,4.48
2017-12-26T03:33:57.827Z,4.47
2017-12-26T03:34:57.829Z,4.48
2017-12-26T03:35:58.002Z,4.48
2017-12-26T03:36:57.916Z,4.46
2017-12-26T03:37:57.842Z,4.48
2017-12-26T03:38:57.897Z,4.47
2017-12-26T03:39:57.900Z,4.48
2017-12-26T03:40:57.752Z,4.46
2017-12-26T03:41:57.814Z,4.48
2017-12-26T03:42:57.738Z,4.48
2017-12-26T03:43:57.868Z,4.5
2017-12-26T03:44:57.955Z,4.48
2017-12-26T03:45:57.984Z,4.48
2017-12-26T03:46:58.180Z,4.48
2017-12-26T03:47:57.921Z,4.5
2017-12-26T03:48:57.880Z,4.51
2017-12-26T03:49:58.063Z,4.52
2017-12-26T03:50:57.992Z,4.53
2017-12-26T03:51:57.976Z,4.53
2017-12-26T03:52:58.102Z,4.53
2017-12-26T03:53:58.047Z,4.52
2017-12-26T03:54:57.942Z,4.52
2017-12-26T03:55:57.940Z,4.53
2017-12-26T03:56:57.741Z,4.52
2017-12-26T03:57:57.955Z,4.51
2017-12-26T03:58:58.067Z,4.54
2017-12-26T03:59:57.917Z,4.53
2017-12-26T04:00:57.850Z,4.55
2017-12-26T04:01:57.839Z,4.54
2017-12-26T04:02:57.926Z,4.54
2017-12-26T04:03:58.055Z,4.54
2017-12-26T04:04:57.905Z,4.56
2017-12-26T04:05:57.894Z,4.54
2017-12-26T04:06:57.901Z,4.56
2017-12-26T04:07:58.090Z,4.53
2017-12-26T04:08:57.887Z,4.54
2017-12-26T04:09:57.910Z,4.52
2017-12-26T04:10:58.081Z,4.53
2017-12-26T04:11:58.012Z,4.52
2017-12-26T04:12:57.932Z,4.51
2017-12-26T04:13:57.988Z,4.53
2017-12-26T04:14:58.043Z,4.53
2017-12-26T04:15:57.925Z,4.52
2017-12-26T04:16:57.966Z,4.52
2017-12-26T04:17:57.862Z,4.53
2017-12-26T04:18:58.004Z,4.5
2017-12-26T04:19:57.981Z,4.51
2017-12-26T04:20:57.879Z,4.52
2017-12-26T04:21:57.864Z,4.52
2017-12-26T04:22:57.891Z,4.53
2017-12-26T04:23:58.023Z,4.53
2017-12-26T04:24:57.926Z,4.55
2017-12-26T04:25:57.971Z,4.54
2017-12-26T04:26:58.040Z,4.54
2017-12-26T04:27:57.981Z,4.54
2017-12-26T04:28:57.933Z,4.56
2017-12-26T04:29:57.983Z,4.57
2017-12-26T04:30:58.071Z,4.55
2017-12-26T04:31:57.991Z,4.58
2017-12-26T04:32:57.997Z,4.58
2017-12-26T04:33:58.133Z,4.55
2017-12-26T04:34:57.813Z,4.54
2017-12-26T04:35:57.993Z,4.54
2017-12-26T04:36:57.908Z,4.53
2017-12-26T04:37:57.928Z,4.5
2017-12-26T04:38:58.049Z,4.51
2017-12-26T04:39:57.968Z,4.53
2017-12-26T04:40:57.908Z,4.55
2017-12-26T04:41:58.031Z,4.53
2017-12-26T04:42:57.958Z,4.57
2017-12-26T04:43:57.889Z,4.56
2017-12-26T04:44:57.973Z,4.56
2017-12-26T04:45:58.335Z,4.53
2017-12-26T04:46:58.041Z,4.56
2017-12-26T04:47:58.057Z,4.56
2017-12-26T04:48:57.985Z,4.57
2017-12-26T04:49:58.045Z,4.6
2017-12-26T04:50:58.024Z,4.55
2017-12-26T04:51:58.202Z,4.56
2017-12-26T04:52:58.057Z,4.57
2017-12-26T04:53:57.913Z,4.57
2017-12-26T04:54:58.054Z,4.58
2017-12-26T04:55:57.943Z,4.6
2017-12-26T04:56:58.109Z,4.58
2017-12-26T04:57:58.023Z,4.57
2017-12-26T04:58:58.031Z,4.63
2017-12-26T04:59:58.017Z,4.61
2017-12-26T05:00:57.875Z,4.63
2017-12-26T05:01:57.850Z,4.64
2017-12-26T05:02:57.953Z,4.64
2017-12-26T05:03:58.098Z,4.62
2017-12-26T05:04:58.194Z,4.65
2017-12-26T05:05:58.026Z,4.65
2017-12-26T05:06:57.934Z,4.64
2017-12-26T05:07:57.992Z,4.65
2017-12-26T05:08:57.910Z,4.68
2017-12-26T05:09:58.062Z,4.67
2017-12-26T05:10:58.042Z,4.67
2017-12-26T05:11:58.260Z,4.66
2017-12-26T05:12:58.163Z,4.68
2017-12-26T05:13:58.155Z,4.65
2017-12-26T05:14:57.858Z,4.67
2017-12-26T05:15:58.079Z,4.67
2017-12-26T05:16:57.967Z,4.66
2017-12-26T05:17:58.054Z,4.67
2017-12-26T05:18:57.969Z,4.67
2017-12-26T05:19:58.033Z,4.67
2017-12-26T05:20:57.952Z,4.67
2017-12-26T05:21:58.051Z,4.65
2017-12-26T05:22:58.089Z,4.67
2017-12-26T05:23:57.932Z,4.68
2017-12-26T05:24:58.032Z,4.67
2017-12-26T05:25:58.041Z,4.66
2017-12-26T05:26:57.908Z,4.67
2017-12-26T05:27:58.143Z,4.66
2017-12-26T05:28:57.958Z,4.66
2017-12-26T05:29:57.873Z,4.66
2017-12-26T05:30:57.960Z,4.68
2017-12-26T05:31:58.079Z,4.65
2017-12-26T05:32:57.997Z,4.66
2017-12-26T05:33:58.026Z,4.64
2017-12-26T05:34:57.972Z,4.65
2017-12-26T05:35:57.977Z,4.66
2017-12-26T05:36:58.034Z,4.64
2017-12-26T05:37:58.089Z,4.66
2017-12-26T05:38:57.915Z,4.66
2017-12-26T05:39:58.013Z,4.66
2017-12-26T05:40:58.055Z,4.67
2017-12-26T05:41:58.012Z,4.69
2017-12-26T05:42:57.900Z,4.68
2017-12-26T05:43:58.161Z,4.69
2017-12-26T05:44:58.014Z,4.69
2017-12-26T05:45:58.017Z,4.68
2017-12-26T05:46:57.989Z,4.69
2017-12-26T05:47:57.962Z,4.67
2017-12-26T05:48:58.080Z,4.7
2017-12-26T05:49:58.015Z,4.7
2017-12-26T05:50:58.156Z,4.7
2017-12-26T05:51:57.987Z,4.69
2017-12-26T05:52:58.011Z,4.7
2017-12-26T05:53:58.096Z,4.72
2017-12-26T05:54:58.115Z,4.71
2017-12-26T05:55:58.135Z,4.73
2017-12-26T05:56:58.027Z,4.71
2017-12-26T05:57:57.956Z,4.73
2017-12-26T05:58:58.037Z,4.74
2017-12-26T05:59:58.010Z,4.75
2017-12-26T06:00:58.006Z,4.74
2017-12-26T06:01:58.366Z,4.74
2017-12-26T06:02:57.999Z,4.73
2017-12-26T06:03:58.107Z,4.74
2017-12-26T06:04:57.996Z,4.74
2017-12-26T06:05:57.998Z,4.76
2017-12-26T06:06:57.941Z,4.75
2017-12-26T06:07:58.027Z,4.75
2017-12-26T06:08:58.028Z,4.74
2017-12-26T06:09:58.251Z,4.74
2017-12-26T06:10:58.081Z,4.73
2017-12-26T06:11:58.012Z,4.73
2017-12-26T06:12:58.142Z,4.72
2017-12-26T06:13:58.047Z,4.74
2017-12-26T06:14:58.077Z,4.73
2017-12-26T06:15:58.080Z,4.73
2017-12-26T06:16:58.091Z,4.73
2017-12-26T06:17:58.082Z,4.72
2017-12-26T06:18:58.149Z,4.73
2017-12-26T06:19:58.179Z,4.72
2017-12-26T06:20:57.914Z,4.73
2017-12-26T06:21:58.186Z,4.71
2017-12-26T06:22:58.199Z,4.72
2017-12-26T06:23:58.014Z,4.74
2017-12-26T06:24:58.043Z,4.74
2017-12-26T06:25:58.115Z,4.73
2017-12-26T06:26:58.134Z,4.72
2017-12-26T06:27:58.138Z,4.73
2017-12-26T06:28:57.893Z,4.72
2017-12-26T06:29:58.106Z,4.72
2017-12-26T06:30:58.133Z,4.73
2017-12-26T06:31:58.182Z,4.72
2017-12-26T06:32:57.942Z,4.73
2017-12-26T06:33:58.189Z,4.74
2017-12-26T06:34:58.029Z,4.75
2017-12-26T06:35:58.084Z,4.74
2017-12-26T06:36:58.096Z,4.75
2017-12-26T06:37:58.141Z,4.74
2017-12-26T06:38:58.101Z,4.74
2017-12-26T06:39:58.145Z,4.75
2017-12-26T06:40:58.042Z,4.75
2017-12-26T06:41:58.135Z,4.76
2017-12-26T06:42:58.076Z,4.74
2017-12-26T06:43:57.956Z,4.75
2017-12-26T06:44:58.056Z,4.75
2017-12-26T06:45:57.954Z,4.76
2017-12-26T06:46:57.913Z,4.77
2017-12-26T06:47:58.027Z,4.77
2017-12-26T06:48:58.275Z,4.77
2017-12-26T06:49:58.150Z,4.76
2017-12-26T06:50:58.079Z,4.76
2017-12-26T06:51:58.221Z,4.73
2017-12-26T06:52:58.110Z,4.74
2017-12-26T06:53:58.050Z,4.76
2017-12-26T06:54:58.171Z,4.75
2017-12-26T06:55:57.961Z,4.74
2017-12-26T06:56:58.134Z,4.75
2017-12-26T06:57:58.108Z,4.72
2017-12-26T06:58:57.974Z,4.71
2017-12-26T06:59:58.371Z,4.73
2017-12-26T07:00:58.068Z,4.74
2017-12-26T07:01:58.117Z,4.74
2017-12-26T07:02:58.058Z,4.74
2017-12-26T07:03:58.108Z,4.76
2017-12-26T07:04:58.114Z,4.74
2017-12-26T07:05:58.042Z,4.76
2017-12-26T07:06:58.019Z,4.76
2017-12-26T07:07:58.132Z,4.76
2017-12-26T07:08:58.168Z,4.77
2017-12-26T07:09:58.094Z,4.79
2017-12-26T07:10:58.036Z,4.77
2017-12-26T07:11:58.049Z,4.77
2017-12-26T07:12:57.984Z,4.77
2017-12-26T07:13:58.112Z,4.78
2017-12-26T07:14:58.095Z,4.78
2017-12-26T07:15:58.025Z,4.78
2017-12-26T07:16:58.040Z,4.8
2017-12-26T07:17:58.062Z,4.79
2017-12-26T07:18:58.028Z,4.79
2017-12-26T07:19:58.113Z,4.78
2017-12-26T07:20:58.221Z,4.77
2017-12-26T07:21:58.106Z,4.78
2017-12-26T07:22:58.446Z,4.77
2017-12-26T07:23:58.177Z,4.75
2017-12-26T07:24:58.186Z,4.75
2017-12-26T07:25:58.187Z,4.74
2017-12-26T07:26:57.973Z,4.75
2017-12-26T07:27:57.996Z,4.75
2017-12-26T07:28:58.207Z,4.75
2017-12-26T07:29:58.074Z,4.74
2017-12-26T07:30:58.136Z,4.74
2017-12-26T07:31:57.985Z,4.74
2017-12-26T07:32:57.988Z,4.74
2017-12-26T07:33:58.001Z,4.71
2017-12-26T07:34:58.120Z,4.73
2017-12-26T07:35:58.033Z,4.71
2017-12-26T07:36:58.145Z,4.73
2017-12-26T07:37:58.139Z,4.75
2017-12-26T07:38:58.019Z,4.74
2017-12-26T07:39:58.028Z,4.75
2017-12-26T07:40:58.064Z,4.73
2017-12-26T07:41:58.095Z,4.75
2017-12-26T07:42:58.130Z,4.75
2017-12-26T07:43:58.014Z,4.76
2017-12-26T07:44:57.992Z,4.76
2017-12-26T07:45:58.156Z,4.76
2017-12-26T07:46:58.182Z,4.77
2017-12-26T07:49:58.557Z,4.79
2017-12-26T07:50:58.244Z,4.79
2017-12-26T07:51:58.088Z,4.81
2017-12-26T07:52:58.554Z,4.82
2017-12-26T07:53:58.232Z,4.83
2017-12-26T07:54:58.250Z,4.81
2017-12-26T07:55:58.366Z,4.82
2017-12-26T07:56:58.410Z,4.83
2017-12-26T07:57:58.387Z,4.85
2017-12-26T07:58:58.095Z,4.86
2017-12-26T07:59:58.316Z,4.86
2017-12-26T08:00:58.222Z,4.87
2017-12-26T08:01:58.305Z,4.86
2017-12-26T08:02:58.201Z,4.86
2017-12-26T08:03:58.312Z,4.87
2017-12-26T08:04:58.254Z,4.87
2017-12-26T08:05:57.944Z,4.87
2017-12-26T08:06:58.181Z,4.85
2017-12-26T08:07:58.408Z,4.86
2017-12-26T08:08:58.304Z,4.86
2017-12-26T08:09:58.130Z,4.86
2017-12-26T08:10:58.369Z,4.87
2017-12-26T08:11:58.399Z,4.87
2017-12-26T08:12:58.449Z,4.87
2017-12-26T08:13:58.322Z,4.87
2017-12-26T08:14:58.227Z,4.88
2017-12-26T08:15:58.232Z,4.89
2017-12-26T08:16:58.586Z,4.9
2017-12-26T08:17:58.145Z,4.91
2017-12-26T08:18:58.203Z,4.9
2017-12-26T08:19:58.140Z,4.91
2017-12-26T08:20:58.386Z,4.93
2017-12-26T08:21:58.184Z,4.94
2017-12-26T08:22:58.221Z,4.95
2017-12-26T08:23:58.184Z,4.96
2017-12-26T08:24:58.245Z,4.97
2017-12-26T08:25:58.224Z,4.98
2017-12-26T08:26:58.175Z,4.98
2017-12-26T08:27:58.138Z,5
2017-12-26T08:28:58.250Z,5.02
2017-12-26T08:29:58.122Z,5.02
2017-12-26T08:30:58.290Z,5.04
2017-12-26T08:31:58.253Z,5.05
2017-12-26T08:32:58.249Z,5.06
2017-12-26T08:33:58.272Z,5.08
2017-12-26T08:34:58.291Z,5.09
2017-12-26T08:35:58.501Z,5.1
2017-12-26T08:36:58.163Z,5.09
2017-12-26T08:37:58.430Z,5.08
2017-12-26T08:38:58.319Z,5.1
2017-12-26T08:39:58.307Z,5.11
2017-12-26T08:40:58.329Z,5.09
2017-12-26T08:41:58.464Z,5.09
2017-12-26T08:42:58.252Z,5.11
2017-12-26T08:43:58.263Z,5.12
2017-12-26T08:44:58.107Z,5.12
2017-12-26T08:45:58.269Z,5.12
2017-12-26T08:46:58.227Z,5.11
2017-12-26T08:47:58.409Z,5.13
2017-12-26T08:48:58.288Z,5.14
2017-12-26T08:49:58.154Z,5.14
2017-12-26T08:50:58.206Z,5.16
2017-12-26T08:51:58.286Z,5.16
2017-12-26T08:52:58.334Z,5.19
2017-12-26T08:53:58.312Z,5.18
2017-12-26T08:54:58.254Z,5.16
2017-12-26T08:55:58.417Z,5.18
2017-12-26T08:56:58.240Z,5.2
2017-12-26T08:57:58.332Z,5.19
2017-12-26T08:58:58.335Z,5.22
2017-12-26T08:59:58.366Z,5.22
2017-12-26T09:00:58.240Z,5.21
2017-12-26T09:01:58.264Z,5.21
2017-12-26T09:02:58.015Z,5.21
2017-12-26T09:03:58.296Z,5.22
2017-12-26T09:04:58.302Z,5.21
2017-12-26T09:05:58.306Z,5.22
2017-12-26T09:06:58.229Z,5.21
2017-12-26T09:07:58.298Z,5.22
2017-12-26T09:08:58.398Z,5.24
2017-12-26T09:09:58.335Z,5.24
2017-12-26T09:10:58.265Z,5.22
2017-12-26T09:11:58.272Z,5.23
2017-12-26T09:12:58.316Z,5.24
2017-12-26T09:13:58.412Z,5.24
2017-12-26T09:14:58.260Z,5.25
2017-12-26T09:15:58.263Z,5.25
2017-12-26T09:16:58.294Z,5.26
2017-12-26T09:17:58.304Z,5.25
2017-12-26T09:18:58.368Z,5.27
2017-12-26T09:19:58.368Z,5.27
2017-12-26T09:20:58.399Z,5.26
2017-12-26T09:21:58.367Z,5.27
2017-12-26T09:22:58.295Z,5.28
2017-12-26T09:23:58.441Z,5.27
2017-12-26T09:24:58.488Z,5.28
2017-12-26T09:28:06.860Z,5.29
2017-12-26T09:28:58.367Z,5.3
2017-12-26T09:29:58.409Z,5.29
2017-12-26T09:30:58.188Z,5.3
2017-12-26T09:31:58.272Z,5.32
2017-12-26T09:32:58.333Z,5.33
2017-12-26T09:33:58.380Z,5.33
2017-12-26T09:34:58.349Z,5.34
2017-12-26T09:35:58.379Z,5.34
2017-12-26T09:36:58.322Z,5.33
2017-12-26T09:37:58.436Z,5.34
2017-12-26T09:38:58.200Z,5.35
2017-12-26T09:39:58.305Z,5.35
2017-12-26T09:40:58.205Z,5.35
2017-12-26T09:44:04.868Z,5.36
2017-12-26T09:44:58.482Z,5.38
2017-12-26T09:45:58.395Z,5.37
2017-12-26T09:46:58.218Z,5.38
2017-12-26T09:47:58.495Z,5.39
2017-12-26T09:48:58.556Z,5.39
2017-12-26T09:49:58.426Z,5.4
2017-12-26T09:50:58.967Z,5.42
2017-12-26T09:51:58.470Z,5.43
2017-12-26T09:52:58.421Z,5.43
2017-12-26T09:53:58.419Z,5.47
2017-12-26T09:54:58.315Z,5.45
2017-12-26T09:55:58.430Z,5.46
2017-12-26T09:56:58.433Z,5.46
2017-12-26T09:57:58.450Z,5.46
2017-12-26T09:58:58.409Z,5.47
2017-12-26T09:59:58.627Z,5.47
2017-12-26T10:00:58.302Z,5.47
2017-12-26T10:01:58.516Z,5.49
2017-12-26T10:02:58.518Z,5.49
2017-12-26T10:03:58.475Z,5.47
2017-12-26T10:04:58.495Z,5.49
2017-12-26T10:05:58.519Z,5.5
2017-12-26T10:06:58.229Z,5.48
2017-12-26T10:07:58.456Z,5.5
2017-12-26T10:08:58.374Z,5.51
2017-12-26T10:09:58.306Z,5.49
2017-12-26T10:10:58.431Z,5.48
2017-12-26T10:11:58.343Z,5.49
2017-12-26T10:12:58.631Z,5.49
2017-12-26T10:13:58.339Z,5.52
2017-12-26T10:14:58.465Z,5.5
2017-12-26T10:15:58.244Z,5.55
2017-12-26T10:16:58.392Z,5.57
2017-12-26T10:17:58.869Z,5.53
2017-12-26T10:18:58.276Z,5.59
2017-12-26T10:19:58.498Z,5.6
2017-12-26T10:20:58.248Z,5.58
2017-12-26T10:21:58.565Z,5.6
2017-12-26T10:22:58.444Z,5.58
2017-12-26T10:23:58.495Z,5.59
2017-12-26T10:24:58.409Z,5.59
2017-12-26T10:25:58.554Z,5.63
2017-12-26T10:26:58.564Z,5.63
2017-12-26T10:27:58.530Z,5.66
2017-12-26T10:28:58.462Z,5.63
2017-12-26T10:29:59.140Z,5.65
2017-12-26T10:30:58.767Z,5.66
2017-12-26T10:31:58.884Z,5.66
2017-12-26T10:32:58.622Z,5.64
2017-12-26T10:33:58.462Z,5.67
2017-12-26T10:34:58.415Z,5.7
2017-12-26T10:35:58.666Z,5.68
2017-12-26T10:36:58.476Z,5.68
2017-12-26T10:37:58.695Z,5.69
2017-12-26T10:38:58.493Z,5.7
2017-12-26T10:39:58.516Z,5.72
2017-12-26T10:40:59.053Z,5.72
2017-12-26T10:41:58.858Z,5.74
2017-12-26T10:42:58.760Z,5.79
2017-12-26T10:43:58.680Z,5.75
2017-12-26T10:44:58.563Z,5.74
2017-12-26T10:45:58.685Z,5.78
2017-12-26T10:46:58.720Z,5.81
2017-12-26T10:48:00.612Z,5.8
2017-12-26T10:48:58.598Z,6.11
2017-12-26T10:49:58.971Z,5.96
2017-12-26T10:50:58.789Z,5.97
2017-12-26T10:51:58.826Z,5.94
2017-12-26T10:52:58.801Z,5.99
2017-12-26T10:53:58.570Z,5.98
2017-12-26T10:54:58.815Z,6
2017-12-26T10:55:58.700Z,6.01
2017-12-26T10:56:58.588Z,6
2017-12-26T10:57:58.639Z,5.99
2017-12-26T10:58:58.800Z,6.05
2017-12-26T10:59:58.814Z,6.04
2017-12-26T11:00:59.609Z,6.02
2017-12-26T11:01:58.684Z,6
2017-12-26T11:02:58.605Z,6.06
2017-12-26T11:03:58.476Z,6.07
2017-12-26T11:04:58.576Z,6.05
2017-12-26T11:05:58.695Z,6.08
2017-12-26T11:06:58.541Z,6.09
2017-12-26T11:07:58.825Z,6.11
2017-12-26T11:08:58.649Z,6.12
2017-12-26T11:09:59.003Z,6.11
2017-12-26T11:10:58.807Z,6.14
2017-12-26T11:11:59.779Z,6.13
2017-12-26T11:12:58.558Z,6.15
2017-12-26T11:13:58.576Z,6.15
2017-12-26T11:14:58.879Z,6.16
2017-12-26T11:15:58.601Z,6.18
2017-12-26T11:16:58.693Z,6.18
2017-12-26T11:17:58.613Z,6.2
2017-12-26T11:18:58.658Z,6.23
2017-12-26T11:19:58.801Z,6.22
2017-12-26T11:20:58.638Z,6.21
2017-12-26T11:21:58.679Z,6.17
2017-12-26T11:22:58.719Z,6.23
2017-12-26T11:23:58.556Z,6.24
2017-12-26T11:24:58.824Z,6.25
2017-12-26T11:25:58.770Z,6.24
2017-12-26T11:26:59.560Z,6.27
2017-12-26T11:27:59.530Z,6.26
2017-12-26T11:28:58.390Z,6.31
2017-12-26T11:29:59.761Z,6.33
2017-12-26T11:30:58.922Z,6.31
2017-12-26T11:31:58.777Z,6.29
2017-12-26T11:32:58.691Z,6.3
2017-12-26T11:33:58.694Z,6.33
2017-12-26T11:34:58.539Z,6.34
2017-12-26T11:35:58.707Z,6.34
2017-12-26T11:36:58.452Z,6.34
2017-12-26T11:38:10.791Z,6.3
2017-12-26T11:38:58.436Z,6.31
2017-12-26T11:39:58.615Z,6.34
2017-12-26T11:40:58.693Z,6.29
2017-12-26T11:41:58.635Z,6.31
2017-12-26T11:42:58.578Z,6.29
2017-12-26T11:43:58.652Z,6.31
2017-12-26T11:44:58.782Z,6.31
2017-12-26T11:45:58.644Z,6.3
2017-12-26T11:46:58.723Z,6.3
2017-12-26T11:47:58.544Z,6.32
2017-12-26T11:48:58.532Z,6.34
2017-12-26T11:49:58.538Z,6.33
2017-12-26T11:50:58.702Z,6.32
2017-12-26T11:51:58.548Z,6.32
2017-12-26T11:52:58.519Z,6.33
2017-12-26T11:53:58.572Z,6.33
2017-12-26T11:54:58.517Z,6.34
2017-12-26T11:56:00.543Z,6.35
2017-12-26T11:56:59.085Z,6.37
2017-12-26T11:57:58.725Z,6.36
2017-12-26T11:59:00.097Z,6.36
2017-12-26T11:59:58.723Z,6.37
2017-12-26T12:00:58.566Z,6.35
2017-12-26T12:01:58.523Z,6.36
2017-12-26T12:02:58.481Z,6.35
2017-12-26T12:04:00.881Z,6.35
2017-12-26T12:04:58.757Z,6.34
2017-12-26T12:05:59.584Z,6.28
2017-12-26T12:06:58.589Z,6.31
2017-12-26T12:07:58.762Z,6.32
2017-12-26T12:08:59.599Z,6.34
2017-12-26T12:09:58.670Z,6.33
2017-12-26T12:10:59.010Z,6.32
2017-12-26T12:11:58.559Z,6.33
2017-12-26T12:13:08.027Z,6.32
2017-12-26T12:13:58.538Z,6.32
2017-12-26T12:14:58.625Z,6.31
2017-12-26T12:15:58.907Z,6.32
2017-12-26T12:16:58.430Z,6.34
2017-12-26T12:17:59.052Z,6.32
2017-12-26T12:18:58.809Z,6.31
2017-12-26T12:19:58.629Z,6.32
2017-12-26T12:20:59.496Z,6.33
2017-12-26T12:21:58.486Z,6.32
2017-12-26T12:22:58.512Z,6.33
2017-12-26T12:23:58.545Z,6.35
2017-12-26T12:24:58.398Z,6.36
2017-12-26T12:26:00.226Z,6.33
2017-12-26T12:27:03.433Z,6.34
2017-12-26T12:29:05.780Z,6.33
2017-12-26T12:30:07.939Z,6.32
2017-12-26T12:31:00.652Z,6.32
2017-12-26T12:31:58.587Z,6.32
2017-12-26T12:33:06.710Z,6.35
2017-12-26T12:34:03.764Z,6.33
2017-12-26T12:35:04.032Z,6.34
2017-12-26T12:36:02.074Z,6.32
2017-12-26T12:37:11.636Z,6.34
2017-12-26T12:39:20.819Z,6.31
2017-12-26T12:40:09.438Z,6.31
2017-12-26T12:44:16.636Z,6.29
2017-12-26T12:46:15.553Z,6.31
2017-12-26T12:47:23.394Z,6.31
2017-12-26T12:47:58.562Z,6.33
2017-12-26T12:48:58.772Z,6.31
2017-12-26T12:49:58.542Z,6.31
2017-12-26T12:50:58.719Z,6.26
2017-12-26T12:51:58.611Z,6.3
2017-12-26T12:52:58.817Z,6.26
2017-12-26T12:53:59.412Z,6.27
2017-12-26T12:54:58.479Z,6.25
2017-12-26T12:55:58.673Z,6.26
2017-12-26T12:56:58.665Z,6.26
2017-12-26T12:57:58.496Z,6.24
2017-12-26T12:58:58.486Z,6.24
2017-12-26T12:59:58.816Z,6.21
2017-12-26T13:00:58.701Z,6.16
2017-12-26T13:01:58.530Z,6.12
2017-12-26T13:02:58.656Z,6.17
2017-12-26T13:03:58.628Z,6.17
2017-12-26T13:04:58.595Z,6.15
2017-12-26T13:05:58.552Z,6.17
2017-12-26T13:06:58.627Z,6.15
2017-12-26T13:07:58.633Z,6.1
2017-12-26T13:08:58.753Z,6.02
2017-12-26T13:09:58.643Z,6.05
2017-12-26T13:10:58.766Z,6.01
2017-12-26T13:11:59.173Z,6.04
2017-12-26T13:12:59.381Z,6.1
2017-12-26T13:13:58.579Z,6.09
2017-12-26T13:14:58.513Z,6.12
2017-12-26T13:15:58.772Z,6.08
2017-12-26T13:16:58.675Z,6.1
2017-12-26T13:17:58.460Z,6.13
2017-12-26T13:18:58.574Z,6.11
2017-12-26T13:19:58.929Z,6.12
2017-12-26T13:20:58.768Z,6.14
2017-12-26T13:21:58.694Z,6.09
2017-12-26T13:22:58.541Z,6.03
2017-12-26T13:23:58.920Z,6.11
2017-12-26T13:24:58.706Z,6.01
2017-12-26T13:25:59.267Z,6.13
2017-12-26T13:26:58.897Z,5.94
2017-12-26T13:27:58.976Z,5.97
2017-12-26T13:28:59.269Z,6.03
2017-12-26T13:29:59.122Z,5.94
2017-12-26T13:30:59.425Z,5.89
2017-12-26T13:32:02.060Z,5.93
2017-12-26T13:32:58.891Z,5.96
2017-12-26T13:33:58.924Z,6
2017-12-26T13:34:58.765Z,5.92
2017-12-26T13:35:58.691Z,5.96